createdAt,value
2019-04-25T00:00:43.163Z,6.28
2019-04-25T00:03:12.270Z,7.15
2019-04-25T00:05:40.510Z,6.90
2019-04-25T00:08:09.523Z,6.67
2019-04-25T00:10:37.785Z,6.40
2019-04-25T00:13:05.916Z,6.83
2019-04-25T00:15:33.547Z,6.95
2019-04-25T00:18:02.340Z,7.22
2019-04-25T00:20:31.872Z,6.90
2019-04-25T00:23:07.373Z,6.20
2019-04-25T00:25:52.702Z,7.95
2019-04-25T00:28:21.646Z,6.70
2019-04-25T00:30:49.598Z,6.95
2019-04-25T00:33:17.715Z,7.35
2019-04-25T00:35:45.773Z,7.83
2019-04-25T00:38:15.421Z,7.20
2019-04-25T00:40:43.941Z,7.65
2019-04-25T00:43:12.577Z,7.05
2019-04-25T00:45:41.506Z,6.80
2019-04-25T00:48:09.384Z,8.43
2019-04-25T00:50:37.020Z,8.30
2019-04-25T00:53:04.497Z,7.53
2019-04-25T00:55:31.744Z,7.60
2019-04-25T00:58:01.385Z,7.25
2019-04-25T01:00:47.439Z,8.13
2019-04-25T01:03:21.525Z,8.08
2019-04-25T01:05:52.423Z,7.05
2019-04-25T01:08:21.893Z,7.75
2019-04-25T01:10:50.521Z,6.87
2019-04-25T01:13:18.841Z,7.40
2019-04-25T01:15:47.363Z,7.42
2019-04-25T01:18:14.872Z,7.45
2019-04-25T01:20:43.461Z,7.58
2019-04-25T01:23:11.161Z,7.80
2019-04-25T01:25:42.495Z,8.25
2019-04-25T01:28:08.286Z,7.78
2019-04-25T01:30:35.784Z,8.03
2019-04-25T01:33:04.235Z,8.20
2019-04-25T01:35:39.241Z,6.87
2019-04-25T01:38:11.226Z,7.83
2019-04-25T01:40:40.747Z,7.97
2019-04-25T01:43:13.782Z,8.23
2019-04-25T01:45:41.467Z,8.08
2019-04-25T01:48:08.859Z,7.12
2019-04-25T01:50:36.317Z,7.97
2019-04-25T01:53:03.875Z,7.17
2019-04-25T01:55:31.434Z,7.28
2019-04-25T01:57:59.848Z,7.87
2019-04-25T02:00:29.322Z,8.30
2019-04-25T02:02:56.811Z,7.60
2019-04-25T02:05:24.428Z,8.28
2019-04-25T02:07:52.961Z,8.08
2019-04-25T02:10:23.394Z,8.23
2019-04-25T02:12:55.154Z,7.53
2019-04-25T02:15:23.804Z,7.28
2019-04-25T02:17:53.513Z,7.85
2019-04-25T02:20:22.013Z,7.97
2019-04-25T02:22:52.149Z,7.47
2019-04-25T02:25:19.777Z,8.33
2019-04-25T02:27:47.151Z,8.48
2019-04-25T02:30:16.205Z,7.90
2019-04-25T02:32:44.700Z,8.65
2019-04-25T02:35:14.203Z,7.85
2019-04-25T02:37:41.473Z,7.72
2019-04-25T02:40:13.971Z,8.08
2019-04-25T02:42:41.034Z,7.55
2019-04-25T02:45:11.257Z,8.18
2019-04-25T02:47:46.424Z,7.83
2019-04-25T02:50:15.568Z,7.70
2019-04-25T02:52:44.628Z,7.95
2019-04-25T02:55:29.614Z,8.68
2019-04-25T02:57:41.793Z,8.40
2019-04-25T03:00:18.568Z,8.10
2019-04-25T03:02:46.255Z,8.35
2019-04-25T03:05:14.382Z,7.97
2019-04-25T03:07:44.563Z,8.03
2019-04-25T03:10:14.658Z,7.92
2019-04-25T03:12:41.975Z,7.92
2019-04-25T03:15:10.429Z,8.38
2019-04-25T03:17:38.185Z,7.62
2019-04-25T03:20:24.675Z,7.80
2019-04-25T03:22:54.758Z,8.43
2019-04-25T03:25:24.776Z,8.85
2019-04-25T03:27:54.106Z,8.38
2019-04-25T03:30:21.947Z,8.50
2019-04-25T03:32:51.489Z,8.28
2019-04-25T03:35:20.682Z,7.28
2019-04-25T03:37:48.121Z,7.80
2019-04-25T03:40:15.268Z,7.85
2019-04-25T03:42:43.934Z,7.80
2019-04-25T03:45:11.562Z,7.75
2019-04-25T03:47:38.938Z,8.55
2019-04-25T03:50:07.262Z,7.53
2019-04-25T03:52:35.528Z,7.67
2019-04-25T03:55:05.126Z,8.23
2019-04-25T03:57:33.818Z,8.30
2019-04-25T04:00:01.328Z,8.25
2019-04-25T04:02:28.637Z,8.03
2019-04-25T04:04:56.123Z,8.30
2019-04-25T04:07:23.856Z,8.98
2019-04-25T04:09:51.384Z,8.45
2019-04-25T04:12:18.646Z,7.60
2019-04-25T04:14:45.923Z,9.20
2019-04-25T04:17:21.184Z,8.65
2019-04-25T04:19:56.281Z,8.03
2019-04-25T04:22:25.671Z,9.30
2019-04-25T04:24:54.692Z,8.55
2019-04-25T04:27:23.868Z,7.92
2019-04-25T04:29:51.360Z,8.48
2019-04-25T04:32:19.022Z,8.18
2019-04-25T04:34:46.290Z,8.50
2019-04-25T04:37:14.803Z,7.83
2019-04-25T04:39:43.738Z,8.33
2019-04-25T04:42:11.676Z,8.20
2019-04-25T04:44:39.042Z,7.62
2019-04-25T04:47:06.489Z,8.00
2019-04-25T04:49:34.800Z,8.53
2019-04-25T04:52:06.083Z,7.87
2019-04-25T04:54:32.081Z,8.03
2019-04-25T04:56:59.646Z,7.75
2019-04-25T04:59:27.034Z,8.18
2019-04-25T05:02:14.232Z,7.72
2019-04-25T05:04:54.275Z,8.00
2019-04-25T05:07:23.734Z,8.33
2019-04-25T05:09:53.525Z,8.20
2019-04-25T05:12:21.648Z,7.90
2019-04-25T05:14:49.127Z,8.23
2019-04-25T05:17:17.704Z,8.58
2019-04-25T05:19:45.365Z,8.18
2019-04-25T05:22:14.538Z,8.23
2019-04-25T05:24:43.758Z,7.97
2019-04-25T05:27:10.933Z,8.48
2019-04-25T05:29:38.836Z,7.83
2019-04-25T05:32:06.583Z,7.87
2019-04-25T05:34:35.364Z,8.53
2019-04-25T05:37:03.863Z,8.33
2019-04-25T05:39:33.483Z,8.03
2019-04-25T05:42:11.896Z,8.18
2019-04-25T05:44:39.821Z,8.35
2019-04-25T05:47:08.200Z,9.38
2019-04-25T05:49:35.481Z,8.08
2019-04-25T05:52:04.044Z,7.80
2019-04-25T05:54:31.406Z,7.83
2019-04-25T05:56:58.811Z,7.35
2019-04-25T05:59:26.928Z,7.08
2019-04-25T06:01:54.593Z,7.78
2019-04-25T06:04:24.479Z,6.83
2019-04-25T06:06:53.040Z,8.05
2019-04-25T06:09:24.062Z,7.33
2019-04-25T06:11:54.200Z,7.87
2019-04-25T06:14:23.674Z,7.87
2019-04-25T06:16:53.656Z,8.45
2019-04-25T06:19:40.170Z,7.85
2019-04-25T06:22:09.466Z,7.80
2019-04-25T06:24:44.513Z,6.45
2019-04-25T06:27:14.314Z,7.10
2019-04-25T06:29:43.184Z,7.67
2019-04-25T06:32:10.835Z,7.50
2019-04-25T06:34:38.278Z,7.42
2019-04-25T06:37:06.212Z,7.17
2019-04-25T06:39:34.027Z,7.33
2019-04-25T06:42:01.628Z,7.15
2019-04-25T06:44:30.802Z,7.42
2019-04-25T06:47:08.799Z,6.85
2019-04-25T06:49:37.794Z,6.75
2019-04-25T06:52:05.695Z,7.00
2019-04-25T06:54:35.132Z,7.72
2019-04-25T06:57:04.515Z,7.50
2019-04-25T06:59:34.004Z,7.28
2019-04-25T07:02:01.459Z,7.10
2019-04-25T07:04:29.241Z,6.75
2019-04-25T07:06:56.547Z,7.28
2019-04-25T07:09:27.227Z,6.60
2019-04-25T07:11:53.979Z,7.20
2019-04-25T07:14:21.440Z,6.87
2019-04-25T07:16:48.830Z,6.65
2019-04-25T07:19:17.572Z,7.05
2019-04-25T07:21:46.043Z,6.55
2019-04-25T07:24:14.529Z,6.65
2019-04-25T07:26:44.773Z,7.90
2019-04-25T07:29:17.040Z,6.87
2019-04-25T07:31:49.386Z,7.42
2019-04-25T07:34:21.794Z,5.95
2019-04-25T07:36:49.715Z,6.67
2019-04-25T07:39:17.503Z,6.87
2019-04-25T07:41:45.256Z,6.50
2019-04-25T07:44:14.551Z,6.17
2019-04-25T07:46:43.375Z,6.60
2019-04-25T07:49:11.014Z,6.37
2019-04-25T07:51:38.461Z,5.53
2019-04-25T07:54:06.233Z,6.12
2019-04-25T07:56:35.540Z,6.25
2019-04-25T07:59:06.125Z,6.70
2019-04-25T08:01:37.300Z,7.35
2019-04-25T08:04:04.504Z,7.00
2019-04-25T08:06:33.408Z,6.25
2019-04-25T08:09:01.290Z,6.50
2019-04-25T08:11:30.660Z,6.28
2019-04-25T08:14:16.512Z,6.50
2019-04-25T08:16:46.058Z,6.28
2019-04-25T08:19:13.688Z,6.90
2019-04-25T08:21:41.152Z,6.33
2019-04-25T08:24:09.119Z,6.30
2019-04-25T08:26:38.178Z,7.28
2019-04-25T08:29:06.026Z,6.97
2019-04-25T08:31:34.881Z,6.20
2019-04-25T08:34:03.602Z,5.75
2019-04-25T08:36:31.240Z,6.30
2019-04-25T08:38:59.210Z,5.78
2019-04-25T08:41:26.606Z,5.78
2019-04-25T08:43:54.534Z,6.25
2019-04-25T08:46:23.541Z,6.37
2019-04-25T08:49:04.724Z,5.97
2019-04-25T08:51:36.233Z,5.83
2019-04-25T08:54:23.626Z,5.85
2019-04-25T08:56:53.190Z,5.78
2019-04-25T08:59:42.401Z,5.37
2019-04-25T09:02:23.559Z,5.83
2019-04-25T09:05:10.237Z,5.40
2019-04-25T09:07:39.008Z,5.80
2019-04-25T09:10:07.214Z,4.05
2019-04-25T09:12:35.514Z,5.45
2019-04-25T09:15:04.354Z,4.42
2019-04-25T09:17:35.494Z,4.58
2019-04-25T09:20:03.614Z,6.03
2019-04-25T09:22:31.638Z,4.60
2019-04-25T09:25:00.368Z,4.00
2019-04-25T09:27:28.321Z,3.85
2019-04-25T09:29:55.677Z,4.22
2019-04-25T09:32:23.842Z,4.67
2019-04-25T09:34:52.620Z,4.50
2019-04-25T09:37:20.665Z,4.62
2019-04-25T09:39:53.756Z,4.58
2019-04-25T09:42:23.788Z,4.83
2019-04-25T09:45:03.783Z,5.70
2019-04-25T09:47:31.359Z,5.00
2019-04-25T09:50:04.163Z,4.42
2019-04-25T09:52:31.698Z,4.53
2019-04-25T09:55:01.075Z,5.97
2019-04-25T09:57:39.508Z,4.78
2019-04-25T10:00:09.695Z,4.70
2019-04-25T10:02:38.160Z,4.10
2019-04-25T10:05:05.799Z,4.70
2019-04-25T10:07:33.085Z,4.50
2019-04-25T10:10:00.861Z,4.70
2019-04-25T10:12:28.340Z,4.40
2019-04-25T10:15:43.019Z,4.58
2019-04-25T10:18:14.112Z,4.30
2019-04-25T10:20:41.181Z,5.45
2019-04-25T10:23:10.636Z,3.87
2019-04-25T10:25:39.578Z,4.37
2019-04-25T10:28:07.281Z,4.53
2019-04-25T10:30:35.795Z,4.90
2019-04-25T10:33:04.059Z,4.30
2019-04-25T10:35:34.237Z,3.67
2019-04-25T10:38:03.534Z,4.28
2019-04-25T10:40:31.790Z,4.45
2019-04-25T10:42:59.756Z,4.58
2019-04-25T10:45:27.249Z,4.45
2019-04-25T10:47:56.465Z,4.20
2019-04-25T10:50:24.004Z,3.92
2019-04-25T10:52:52.738Z,3.90
2019-04-25T10:55:23.286Z,4.00
2019-04-25T10:57:51.080Z,4.08
2019-04-25T11:00:24.320Z,3.62
2019-04-25T11:02:53.810Z,4.37
2019-04-25T11:05:21.643Z,4.37
2019-04-25T11:07:49.112Z,3.83
2019-04-25T11:10:17.833Z,4.10
2019-04-25T11:12:47.170Z,4.22
2019-04-25T11:15:15.040Z,4.10
2019-04-25T11:17:45.800Z,3.87
2019-04-25T11:20:23.962Z,3.90
2019-04-25T11:22:52.086Z,3.58
2019-04-25T11:25:24.037Z,4.50
2019-04-25T11:27:54.136Z,4.55
2019-04-25T11:30:25.629Z,4.75
2019-04-25T11:32:54.734Z,4.17
2019-04-25T11:35:24.105Z,4.22
2019-04-25T11:37:54.842Z,4.40
2019-04-25T11:40:27.921Z,4.53
2019-04-25T11:42:55.507Z,5.03
2019-04-25T11:45:23.119Z,5.45
2019-04-25T11:47:50.909Z,4.12
2019-04-25T11:50:18.757Z,4.85
2019-04-25T11:52:46.919Z,4.55
2019-04-25T11:55:14.927Z,4.05
2019-04-25T11:57:48.277Z,3.77
2019-04-25T12:00:21.935Z,4.90
2019-04-25T12:02:44.050Z,4.50
2019-04-25T12:05:11.348Z,4.47
2019-04-25T12:07:38.575Z,4.25
2019-04-25T12:10:08.171Z,4.30
2019-04-25T12:12:37.170Z,3.83
2019-04-25T12:15:04.909Z,4.60
2019-04-25T12:17:35.169Z,4.40
2019-04-25T12:20:03.919Z,4.95
2019-04-25T12:22:31.441Z,4.08
2019-04-25T12:24:58.836Z,4.17
2019-04-25T12:27:26.100Z,3.72
2019-04-25T12:29:54.443Z,4.08
2019-04-25T12:32:22.049Z,4.47
2019-04-25T12:34:49.569Z,5.10
2019-04-25T12:37:17.269Z,4.05
2019-04-25T12:39:46.093Z,3.98
2019-04-25T12:42:14.557Z,4.70
2019-04-25T12:44:56.119Z,4.60
2019-04-25T12:47:31.479Z,4.67
2019-04-25T12:49:58.963Z,5.28
2019-04-25T12:52:26.277Z,4.72
2019-04-25T12:54:57.207Z,4.65
2019-04-25T12:57:24.078Z,4.25
2019-04-25T12:59:51.799Z,4.58
2019-04-25T13:02:19.186Z,3.52
2019-04-25T13:04:47.774Z,4.50
2019-04-25T13:07:15.611Z,5.17
2019-04-25T13:09:43.096Z,4.28
2019-04-25T13:12:13.449Z,4.03
2019-04-25T13:14:40.913Z,3.50
2019-04-25T13:17:09.318Z,3.98
2019-04-25T13:19:38.078Z,4.15
2019-04-25T13:22:06.038Z,4.10
2019-04-25T13:24:33.710Z,3.70
2019-04-25T13:27:06.133Z,4.22
2019-04-25T13:29:53.231Z,4.47
2019-04-25T13:32:34.996Z,4.03
2019-04-25T13:35:04.807Z,3.83
2019-04-25T13:37:32.104Z,4.40
2019-04-25T13:40:00.573Z,4.20
2019-04-25T13:42:28.104Z,5.03
2019-04-25T13:44:56.579Z,3.75
2019-04-25T13:47:29.268Z,4.37
2019-04-25T13:49:56.788Z,4.03
2019-04-25T13:52:25.037Z,4.87
2019-04-25T13:54:53.849Z,4.67
2019-04-25T13:57:21.642Z,4.12
2019-04-25T13:59:49.113Z,4.03
2019-04-25T14:02:18.353Z,4.25
2019-04-25T14:04:45.861Z,4.20
2019-04-25T14:07:13.632Z,4.15
2019-04-25T14:09:41.096Z,3.85
2019-04-25T14:12:08.728Z,5.30
2019-04-25T14:14:36.206Z,6.35
2019-04-25T14:17:21.639Z,4.42
2019-04-25T14:19:54.552Z,4.00
2019-04-25T14:22:22.487Z,4.00
2019-04-25T14:24:51.112Z,3.80
2019-04-25T14:27:18.934Z,3.92
2019-04-25T14:29:46.427Z,3.77
2019-04-25T14:32:15.071Z,5.08
2019-04-25T14:34:43.269Z,4.35
2019-04-25T14:37:11.093Z,4.05
2019-04-25T14:39:39.238Z,3.98
2019-04-25T14:42:06.551Z,4.05
2019-04-25T14:44:33.955Z,4.47
2019-04-25T14:47:03.961Z,4.20
2019-04-25T14:49:31.418Z,3.87
2019-04-25T14:51:59.773Z,4.37
2019-04-25T14:54:36.118Z,4.17
2019-04-25T14:57:15.414Z,3.62
2019-04-25T14:59:42.614Z,3.47
2019-04-25T15:02:10.214Z,3.87
2019-04-25T15:04:37.613Z,4.10
2019-04-25T15:07:05.237Z,3.65
2019-04-25T15:09:33.057Z,4.60
2019-04-25T15:12:00.458Z,4.10
2019-04-25T15:14:28.130Z,4.37
2019-04-25T15:16:55.881Z,4.85
2019-04-25T15:19:24.145Z,4.30
2019-04-25T15:21:52.443Z,3.98
2019-04-25T15:24:20.179Z,3.98
2019-04-25T15:26:47.737Z,4.08
2019-04-25T15:29:15.428Z,4.10
2019-04-25T15:31:55.182Z,4.25
2019-04-25T15:34:12.761Z,4.17
2019-04-25T15:36:42.133Z,4.30
2019-04-25T15:39:28.911Z,3.80
2019-04-25T15:42:00.984Z,4.28
2019-04-25T15:44:46.438Z,3.95
2019-04-25T15:47:15.556Z,3.77
2019-04-25T15:49:42.991Z,3.92
2019-04-25T15:52:11.219Z,4.33
2019-04-25T15:54:38.717Z,4.22
2019-04-25T15:57:07.230Z,3.87
2019-04-25T15:59:34.944Z,4.78
2019-04-25T16:02:08.332Z,4.28
2019-04-25T16:04:35.623Z,4.45
2019-04-25T16:07:04.512Z,5.00
2019-04-25T16:09:33.229Z,3.85
2019-04-25T16:12:00.815Z,5.97
2019-04-25T16:14:28.641Z,4.22
2019-04-25T16:16:56.504Z,4.67
2019-04-25T16:19:24.396Z,4.45
2019-04-25T16:21:52.030Z,4.90
2019-04-25T16:24:19.992Z,4.62
2019-04-25T16:26:47.525Z,4.50
2019-04-25T16:29:15.886Z,5.47
2019-04-25T16:31:44.012Z,4.87
2019-04-25T16:34:11.840Z,5.47
2019-04-25T16:36:39.720Z,5.80
2019-04-25T16:39:09.185Z,5.50
2019-04-25T16:41:40.314Z,4.58
2019-04-25T18:01:21.398Z,7.22
2019-04-25T18:03:49.111Z,6.92
2019-04-25T18:06:17.168Z,7.28
2019-04-25T18:08:44.686Z,7.60
2019-04-25T18:11:12.552Z,10.35
2019-04-25T18:13:41.049Z,10.78
2019-04-25T18:16:15.076Z,11.60
2019-04-25T18:18:53.603Z,8.73
2019-04-25T18:21:21.149Z,9.18
2019-04-25T18:24:02.180Z,8.53
2019-04-25T18:26:35.251Z,11.05
2019-04-25T18:29:04.675Z,12.33
2019-04-25T18:31:31.986Z,12.50
2019-04-25T18:34:01.244Z,11.48
2019-04-25T18:36:30.567Z,11.65
2019-04-25T18:39:14.408Z,12.35
2019-04-25T18:41:44.060Z,12.98
2019-04-25T18:44:13.277Z,12.47
2019-04-25T18:46:45.585Z,12.60
2019-04-25T18:49:13.003Z,13.60
2019-04-25T18:51:40.704Z,12.75
2019-04-25T18:54:16.225Z,14.00
2019-04-25T18:57:00.371Z,13.13
2019-04-25T18:59:35.456Z,14.68
2019-04-25T19:02:21.456Z,12.65
2019-04-25T19:04:54.245Z,12.35
2019-04-25T19:07:23.052Z,14.43
2019-04-25T19:09:51.273Z,30.62
2019-04-25T19:12:19.667Z,46.00
2019-04-25T19:14:47.405Z,58.15
2019-04-25T19:17:15.487Z,51.95
2019-04-25T19:19:43.634Z,43.70
2019-04-25T19:22:11.148Z,44.08
2019-04-25T19:24:40.371Z,41.20
2019-04-25T19:27:08.264Z,44.48
2019-04-25T19:29:35.740Z,48.05
2019-04-25T19:32:03.148Z,45.10
2019-04-25T19:34:30.599Z,45.38
2019-04-25T19:36:58.664Z,43.83
2019-04-25T19:39:28.153Z,33.83
2019-04-25T19:42:09.760Z,37.23
2019-04-25T19:44:37.629Z,39.05
2019-04-25T19:47:04.803Z,30.82
2019-04-25T19:49:32.824Z,32.78
2019-04-25T19:52:00.148Z,29.00
2019-04-25T19:54:27.882Z,23.65
2019-04-25T19:56:56.515Z,22.60
2019-04-25T19:59:24.143Z,19.62
2019-04-25T20:01:53.945Z,24.32
2019-04-25T20:04:26.691Z,22.62
2019-04-25T20:07:11.452Z,24.02
2019-04-25T20:09:57.660Z,20.20
2019-04-25T20:12:29.725Z,22.35
2019-04-25T20:14:57.604Z,27.27
2019-04-25T20:17:25.063Z,29.55
2019-04-25T20:19:52.666Z,29.12
2019-04-25T20:22:20.086Z,30.80
2019-04-25T20:24:48.352Z,27.55
2019-04-25T20:27:16.101Z,29.30
2019-04-25T20:29:45.159Z,29.90
2019-04-25T20:32:12.785Z,27.70
2019-04-25T20:34:40.692Z,27.60
2019-04-25T20:37:08.196Z,23.52
2019-04-25T20:39:36.273Z,19.45
2019-04-25T20:42:03.619Z,17.82
2019-04-25T20:44:31.027Z,16.57
2019-04-25T20:46:58.617Z,17.27
2019-04-25T20:49:26.867Z,18.67
2019-04-25T20:51:54.737Z,17.02
2019-04-25T20:54:22.098Z,18.07
2019-04-25T20:56:49.457Z,19.82
2019-04-25T20:59:17.368Z,17.35
2019-04-25T21:01:44.723Z,18.75
2019-04-25T21:04:31.450Z,18.35
2019-04-25T21:06:59.455Z,19.55
2019-04-25T21:09:26.816Z,17.65
2019-04-25T21:11:54.338Z,16.37
2019-04-25T21:14:23.674Z,17.35
2019-04-25T21:16:53.872Z,15.60
2019-04-25T21:19:35.612Z,13.85
2019-04-25T21:22:03.396Z,12.18
2019-04-25T21:24:31.254Z,12.70
2019-04-25T21:27:00.048Z,13.48
2019-04-25T21:29:28.422Z,13.35
2019-04-25T21:31:56.785Z,14.13
2019-04-25T21:34:26.603Z,13.78
2019-04-25T21:36:53.564Z,13.20
2019-04-25T21:39:26.336Z,14.87
2019-04-25T21:41:55.850Z,17.65
2019-04-25T21:44:24.562Z,15.78
2019-04-25T21:46:52.455Z,15.68
2019-04-25T21:49:21.524Z,14.53
2019-04-25T21:51:50.494Z,16.35
2019-04-25T21:54:17.899Z,15.60
2019-04-25T21:56:46.053Z,15.83
2019-04-25T21:59:14.082Z,15.28
2019-04-25T22:01:42.994Z,14.13
2019-04-25T22:04:10.565Z,14.60
2019-04-25T22:06:39.916Z,14.50
2019-04-25T22:09:10.209Z,12.53
2019-04-25T22:11:37.548Z,11.75
2019-04-25T22:14:05.959Z,12.03
2019-04-25T22:16:33.473Z,12.68
2019-04-25T22:19:02.023Z,11.75
2019-04-25T22:21:37.951Z,13.20
2019-04-25T22:24:08.841Z,13.22
2019-04-25T22:26:28.759Z,12.18
2019-04-25T22:28:57.651Z,13.48
2019-04-25T22:31:28.776Z,13.20
2019-04-25T22:34:04.016Z,12.33
2019-04-25T22:36:32.065Z,12.10
2019-04-25T22:39:08.967Z,12.73
2019-04-25T22:41:39.735Z,12.13
2019-04-25T22:44:10.060Z,13.20
